Terminal Aerodrome Forecast
Issued by NWS

Home | Current Version | Previous Version | Graphics & Text | Print | Product List | Glossary On
Versions: 1 2 3 4 5 6 7 8 9 10 11 12 13 14 15 16 17 18
000
FTUS43 KPAH 230520
TAFOWB
TAF
KOWB 230520Z 2306/2406 15008KT P6SM SCT010 BKN025
     FM231000 19007KT 5SM SHRA VCTS OVC015CB
     FM231400 18008KT 3SM +SHRA OVC008
     FM240100 33010KT P6SM SCT025 OVC040=

USA.gov is the U.S. government's official web portal to all federal, state and local government web resources and services.